createdAt,value
2022-09-17T00:04:10.889Z,100026.75
2022-09-17T00:09:13.731Z,100015.41
2022-09-17T00:14:18.508Z,100030.19
2022-09-17T00:19:24.607Z,100035.03
2022-09-17T00:24:27.468Z,100038.66
2022-09-17T00:29:30.268Z,100048.59
2022-09-17T00:34:34.471Z,100039.34
2022-09-17T00:39:37.839Z,100045.09
2022-09-17T00:44:48.218Z,100053.78
2022-09-17T00:49:56.624Z,100049.06
2022-09-17T00:55:06.428Z,100049.53
2022-09-17T01:00:10.574Z,100059.59
2022-09-17T01:05:16.352Z,100055.25
2022-09-17T01:10:32.848Z,100055.34
2022-09-17T01:15:40.859Z,100047.56
2022-09-17T01:21:15.978Z,100052.09
2022-09-17T01:26:38.833Z,100041.81
2022-09-17T01:31:50.587Z,100059.28
2022-09-17T01:37:04.364Z,100062.47
2022-09-17T01:42:17.789Z,100058.97
2022-09-17T01:47:25.397Z,100058.91
2022-09-17T01:52:31.128Z,100056.53
2022-09-17T01:57:37.811Z,100075.09
2022-09-17T02:02:48.750Z,100071.53
2022-09-17T02:07:55.637Z,100071.03
2022-09-17T02:13:03.122Z,100071.28
2022-09-17T02:18:16.652Z,100072.19
2022-09-17T02:23:30.637Z,100072.66
2022-09-17T02:28:42.771Z,100075.47
2022-09-17T02:33:51.295Z,100072.41
2022-09-17T02:39:00.236Z,100077.53
2022-09-17T02:44:10.949Z,100081.41
2022-09-17T02:49:34.341Z,100076.94
2022-09-17T02:54:44.175Z,100078.72
2022-09-17T02:59:56.214Z,100070.31
2022-09-17T03:05:01.988Z,100071.69
2022-09-17T03:10:05.936Z,100073.69
2022-09-17T03:15:09.515Z,100081.41
2022-09-17T03:20:16.073Z,100080.81
2022-09-17T03:25:18.957Z,100084.00
2022-09-17T03:30:22.053Z,100082.38
2022-09-17T03:35:26.175Z,100081.31
2022-09-17T03:40:29.019Z,100086.00
2022-09-17T03:45:31.763Z,100089.25
2022-09-17T03:50:35.834Z,100092.78
2022-09-17T03:55:39.145Z,100092.47
2022-09-17T04:00:42.996Z,100090.84
2022-09-17T04:05:47.024Z,100096.25
2022-09-17T04:10:50.309Z,100094.25
2022-09-17T04:15:53.100Z,100111.13
2022-09-17T04:20:57.492Z,100099.69
2022-09-17T04:26:00.320Z,100094.00
2022-09-17T04:31:05.162Z,100113.44
2022-09-17T04:36:09.337Z,100122.47
2022-09-17T04:41:12.057Z,100119.06
2022-09-17T04:46:16.779Z,100132.66
2022-09-17T04:51:21.100Z,100126.50
2022-09-17T04:56:24.159Z,100124.25
2022-09-17T05:01:27.373Z,100130.88
2022-09-17T05:06:31.558Z,100130.25
2022-09-17T05:11:34.449Z,100123.69
2022-09-17T05:16:37.211Z,100131.34
2022-09-17T05:21:41.343Z,100129.16
2022-09-17T05:26:44.385Z,100120.22
2022-09-17T05:31:47.295Z,100131.28
2022-09-17T05:36:51.813Z,100144.72
2022-09-17T05:41:55.019Z,100143.84
2022-09-17T05:46:57.868Z,100137.38
2022-09-17T05:52:03.598Z,100145.97
2022-09-17T05:57:07.337Z,100142.50
2022-09-17T06:02:13.254Z,100145.66
2022-09-17T06:07:17.503Z,100154.94
2022-09-17T06:12:20.336Z,100159.19
2022-09-17T06:17:23.701Z,100158.16
2022-09-17T06:22:27.820Z,100174.66
2022-09-17T06:27:33.022Z,100173.97
2022-09-17T06:32:35.912Z,100182.00
2022-09-17T06:37:40.930Z,100181.84
2022-09-17T06:42:43.661Z,100176.13
2022-09-17T06:47:46.420Z,100192.97
2022-09-17T06:52:51.272Z,100189.94
2022-09-17T06:57:54.041Z,100188.28
2022-09-17T07:02:58.173Z,100184.72
2022-09-17T07:08:04.219Z,100171.47
2022-09-17T07:13:06.955Z,100166.72
2022-09-17T07:18:10.714Z,100182.09
2022-09-17T07:23:14.822Z,100207.75
2022-09-17T07:28:17.514Z,100201.97
2022-09-17T07:33:23.327Z,100208.25
2022-09-17T07:38:28.492Z,100206.09
2022-09-17T07:43:33.111Z,100201.75
2022-09-17T07:48:36.154Z,100201.91
2022-09-17T07:53:40.269Z,100200.41
2022-09-17T07:58:43.301Z,100196.91
2022-09-17T08:03:50.703Z,100193.56
2022-09-17T08:08:55.509Z,100190.13
2022-09-17T08:13:58.494Z,100193.88
2022-09-17T08:19:02.051Z,100183.00
2022-09-17T08:24:06.563Z,100171.81
2022-09-17T08:29:10.462Z,100174.28
2022-09-17T08:34:14.655Z,100172.59
2022-09-17T08:39:18.796Z,100167.66
2022-09-17T08:44:27.374Z,100155.88
2022-09-17T08:49:33.220Z,100158.84
2022-09-17T08:54:43.411Z,100151.44
2022-09-17T08:59:53.939Z,100156.50
2022-09-17T09:05:15.485Z,100170.72
2022-09-17T09:10:23.284Z,100154.63
2022-09-17T09:15:37.304Z,100164.44
2022-09-17T09:20:49.262Z,100165.13
2022-09-17T09:25:58.702Z,100165.91
2022-09-17T09:31:09.705Z,100163.19
2022-09-17T09:36:15.307Z,100160.31
2022-09-17T09:41:27.664Z,100158.72
2022-09-17T09:46:54.411Z,100158.06
2022-09-17T09:52:08.843Z,100170.31
2022-09-17T09:57:18.521Z,100170.94
2022-09-17T10:02:21.880Z,100161.44
2022-09-17T10:07:25.053Z,100168.13
2022-09-17T10:12:29.267Z,100163.94
2022-09-17T10:17:32.037Z,100168.94
2022-09-17T10:22:36.851Z,100154.94
2022-09-17T10:27:46.533Z,100154.75
2022-09-17T10:33:17.412Z,100146.41
2022-09-17T10:38:29.437Z,100152.19
2022-09-17T10:43:33.592Z,100148.03
2022-09-17T10:48:43.083Z,100147.41
2022-09-17T10:54:15.170Z,100148.28
2022-09-17T10:59:59.757Z,100126.44
2022-09-17T11:05:23.783Z,100114.44
2022-09-17T11:10:31.923Z,100115.34
2022-09-17T11:15:52.737Z,100108.78
2022-09-17T11:21:15.018Z,100112.59
2022-09-17T11:26:31.230Z,100104.44
2022-09-17T11:31:43.776Z,100107.84
2022-09-17T11:36:56.307Z,100116.19
2022-09-17T11:42:03.820Z,100104.19
2022-09-17T11:47:11.573Z,100114.50
2022-09-17T11:52:22.175Z,100119.41
2022-09-17T11:57:28.566Z,100117.19
2022-09-17T12:02:43.818Z,100101.94
2022-09-17T12:07:54.640Z,100103.81
2022-09-17T12:13:03.654Z,100101.66
2022-09-17T12:18:33.056Z,100101.03
2022-09-17T12:23:45.254Z,100080.28
2022-09-17T12:28:58.759Z,100085.41
2022-09-17T12:34:17.897Z,100079.41
2022-09-17T12:39:40.910Z,100068.72
2022-09-17T12:45:11.922Z,100066.59
2022-09-17T12:50:28.228Z,100055.06
2022-09-17T12:55:45.354Z,100063.78
2022-09-17T13:00:53.661Z,100060.72
2022-09-17T13:06:28.178Z,100053.75
2022-09-17T13:12:07.897Z,100053.06
2022-09-17T13:17:20.370Z,100065.53
2022-09-17T13:22:29.892Z,100070.50
2022-09-17T13:27:37.585Z,100066.50
2022-09-17T13:32:51.968Z,100068.22
2022-09-17T13:37:58.321Z,100064.72
2022-09-17T13:43:11.471Z,100060.81
2022-09-17T13:48:22.748Z,100056.56
2022-09-17T13:53:27.954Z,100047.84
2022-09-17T13:58:33.873Z,100053.09
2022-09-17T14:03:57.020Z,100037.50
2022-09-17T14:08:59.812Z,100047.09
2022-09-17T14:19:37.831Z,100054.19
2022-09-17T14:24:47.001Z,100063.78
2022-09-17T14:30:12.475Z,100065.84
2022-09-17T14:35:21.680Z,100065.97
2022-09-17T14:40:25.334Z,100098.06
2022-09-17T14:45:30.308Z,100101.66
2022-09-17T14:50:34.502Z,100118.38
2022-09-17T14:55:42.828Z,100118.41
2022-09-17T15:00:51.731Z,100114.72
2022-09-17T15:05:55.890Z,100106.03
2022-09-17T15:11:01.098Z,100112.56
2022-09-17T15:16:07.646Z,100113.38
2022-09-17T15:21:30.193Z,100105.63
2022-09-17T15:26:37.110Z,100114.97
2022-09-17T15:31:40.022Z,100110.31
2022-09-17T15:37:04.845Z,100122.59
2022-09-17T15:42:19.341Z,100132.75
2022-09-17T15:47:53.277Z,100135.66
2022-09-17T15:53:13.706Z,100142.09
2022-09-17T15:58:25.751Z,100145.97
2022-09-17T16:04:09.749Z,100147.59
2022-09-17T16:09:46.719Z,100156.22
2022-09-17T16:14:52.247Z,100153.03
2022-09-17T16:19:55.928Z,100165.84
2022-09-17T16:25:00.047Z,100172.50
2022-09-17T16:30:05.358Z,100176.75
2022-09-17T16:35:08.852Z,100183.47
2022-09-17T16:40:13.863Z,100183.81
2022-09-17T16:45:17.138Z,100182.53
2022-09-17T16:50:20.177Z,100188.78
2022-09-17T16:55:24.688Z,100196.00
2022-09-17T17:00:27.644Z,100196.63
2022-09-17T17:05:31.288Z,100204.69
2022-09-17T17:10:36.243Z,100209.88
2022-09-17T17:15:41.733Z,100216.03
2022-09-17T17:20:44.698Z,100207.00
2022-09-17T17:25:48.911Z,100211.22
2022-09-17T17:30:51.841Z,100209.44
2022-09-17T17:35:54.676Z,100216.50
2022-09-17T17:41:07.139Z,100217.44
2022-09-17T17:46:11.478Z,100221.44
2022-09-17T17:51:15.830Z,100226.69
2022-09-17T17:56:20.634Z,100231.97
2022-09-17T18:01:25.758Z,100244.34
2022-09-17T18:06:30.068Z,100253.03
2022-09-17T18:11:35.056Z,100250.75
2022-09-17T18:16:38.540Z,100262.00
2022-09-17T18:21:41.574Z,100263.78
2022-09-17T18:26:47.515Z,100261.38
2022-09-17T18:31:50.863Z,100261.81
2022-09-17T18:36:53.819Z,100272.03
2022-09-17T18:41:58.533Z,100273.72
2022-09-17T18:47:01.508Z,100278.53
2022-09-17T18:52:04.631Z,100286.22
2022-09-17T18:57:08.871Z,100290.84
2022-09-17T19:02:13.048Z,100296.13
2022-09-17T19:07:15.973Z,100295.84
2022-09-17T19:12:20.355Z,100307.19
2022-09-17T19:17:23.209Z,100306.91
2022-09-17T19:22:26.009Z,100313.88
2022-09-17T19:27:31.105Z,100304.19
2022-09-17T19:32:34.021Z,100313.75
2022-09-17T19:37:36.838Z,100322.78
2022-09-17T19:42:41.107Z,100323.75
2022-09-17T19:47:44.582Z,100328.56
2022-09-17T19:52:47.420Z,100340.94
2022-09-17T19:57:52.076Z,100343.16
2022-09-17T20:02:55.189Z,100344.66
2022-09-17T20:07:58.167Z,100343.41
2022-09-17T20:13:02.417Z,100352.78
2022-09-17T20:18:05.606Z,100356.72
2022-09-17T20:23:08.623Z,100348.13
2022-09-17T20:28:12.762Z,100349.91
2022-09-17T20:33:15.769Z,100357.06
2022-09-17T20:39:09.588Z,100366.53
2022-09-17T20:43:44.659Z,100371.97
2022-09-17T20:48:47.644Z,100379.72
2022-09-17T20:53:51.486Z,100379.41
2022-09-17T20:59:03.775Z,100386.81
2022-09-17T21:04:09.426Z,100393.34
2022-09-17T21:09:16.661Z,100399.25
2022-09-17T21:14:21.058Z,100402.91
2022-09-17T21:19:25.353Z,100407.63
2022-09-17T21:24:28.230Z,100403.25
2022-09-17T21:29:32.368Z,100405.88
2022-09-17T21:34:35.139Z,100412.03
2022-09-17T21:39:37.933Z,100407.28
2022-09-17T21:44:42.098Z,100409.59
2022-09-17T21:49:44.896Z,100415.88
2022-09-17T21:54:47.893Z,100415.75
2022-09-17T21:59:52.002Z,100416.38
2022-09-17T22:04:54.724Z,100410.66
2022-09-17T22:09:57.465Z,100414.31
2022-09-17T22:15:01.563Z,100418.16
2022-09-17T22:20:04.674Z,100423.78
2022-09-17T22:25:08.734Z,100420.94
2022-09-17T22:30:13.542Z,100410.06
2022-09-17T22:35:16.487Z,100422.09
2022-09-17T22:40:19.483Z,100421.59
2022-09-17T22:45:23.646Z,100422.44
2022-09-17T22:50:26.911Z,100423.19
2022-09-17T22:55:29.644Z,100422.22
2022-09-17T23:00:34.318Z,100412.56
2022-09-17T23:05:37.186Z,100409.50
2022-09-17T23:10:40.020Z,100418.88
2022-09-17T23:15:44.210Z,100406.53
2022-09-17T23:20:57.435Z,100398.53
2022-09-17T23:26:04.395Z,100403.56
2022-09-17T23:31:10.269Z,100400.00
2022-09-17T23:36:15.247Z,100397.53
2022-09-17T23:41:20.494Z,100391.94
2022-09-17T23:46:26.441Z,100394.16
2022-09-17T23:51:31.638Z,100379.81
2022-09-17T23:56:35.575Z,100376.66
